createdAt,value
2023-04-14T00:00:17.596Z,4.85
2023-04-14T00:02:49.507Z,5.07
2023-04-14T00:05:21.628Z,5.70
2023-04-14T00:07:53.487Z,6.15
2023-04-14T00:10:25.841Z,5.13
2023-04-14T00:12:57.746Z,4.70
2023-04-14T00:15:29.597Z,3.97
2023-04-14T00:18:01.455Z,4.35
2023-04-14T00:20:33.314Z,4.18
2023-04-14T00:23:05.240Z,4.65
2023-04-14T00:25:37.039Z,4.65
2023-04-14T00:28:08.826Z,4.90
2023-04-14T00:30:40.784Z,4.35
2023-04-14T00:33:12.655Z,4.57
2023-04-14T00:35:44.591Z,5.10
2023-04-14T00:38:16.452Z,5.70
2023-04-14T00:40:48.315Z,6.00
2023-04-14T00:43:20.548Z,4.90
2023-04-14T00:45:52.878Z,5.28
2023-04-14T00:48:24.860Z,5.45
2023-04-14T00:50:56.783Z,6.28
2023-04-14T00:53:28.864Z,6.22
2023-04-14T00:56:01.549Z,5.55
2023-04-14T00:58:33.595Z,5.60
2023-04-14T01:01:06.537Z,6.53
2023-04-14T01:03:38.761Z,7.30
2023-04-14T01:06:11.127Z,7.03
2023-04-14T01:08:43.691Z,7.20
2023-04-14T01:11:26.044Z,8.48
2023-04-14T01:14:28.239Z,7.22
2023-04-14T01:17:13.571Z,8.23
2023-04-14T01:20:11.338Z,7.75
2023-04-14T01:22:54.943Z,7.28
2023-04-14T01:25:54.128Z,7.20
2023-04-14T01:29:14.926Z,6.55
2023-04-14T01:31:58.011Z,6.85
2023-04-14T01:34:46.200Z,6.85
2023-04-14T01:37:36.354Z,7.38
2023-04-14T01:40:14.207Z,7.38
2023-04-14T01:42:56.408Z,7.15
2023-04-14T01:48:06.014Z,6.63
2023-04-14T01:50:41.092Z,6.82
2023-04-14T01:53:15.160Z,6.40
2023-04-14T01:55:49.077Z,6.30
2023-04-14T01:58:23.495Z,5.70
2023-04-14T02:00:56.344Z,6.30
2023-04-14T02:03:29.873Z,6.38
2023-04-14T02:06:03.924Z,6.82
2023-04-14T02:08:37.556Z,6.28
2023-04-14T02:11:12.530Z,5.95
2023-04-14T02:13:45.446Z,5.60
2023-04-14T02:16:18.572Z,5.30
2023-04-14T02:18:51.180Z,4.93
2023-04-14T02:21:26.583Z,4.63
2023-04-14T02:23:59.785Z,5.22
2023-04-14T02:26:34.591Z,5.00
2023-04-14T02:29:09.562Z,5.15
2023-04-14T02:31:49.799Z,5.40
2023-04-14T02:34:25.542Z,5.47
2023-04-14T02:37:00.842Z,5.05
2023-04-14T02:39:43.494Z,5.32
2023-04-14T02:42:16.372Z,4.97
2023-04-14T02:44:54.715Z,4.90
2023-04-14T02:47:31.926Z,5.25
2023-04-14T02:50:06.453Z,5.35
2023-04-14T02:52:43.627Z,5.72
2023-04-14T02:55:16.281Z,5.57
2023-04-14T02:57:50.349Z,5.55
2023-04-14T03:00:24.216Z,5.10
2023-04-14T03:02:58.918Z,5.10
2023-04-14T03:05:32.424Z,4.93
2023-04-14T03:08:15.986Z,5.50
2023-04-14T03:10:53.060Z,5.50
2023-04-14T03:13:28.807Z,5.28
2023-04-14T03:16:02.147Z,6.80
2023-04-14T03:18:35.486Z,6.30
2023-04-14T03:21:07.879Z,6.50
2023-04-14T03:23:40.468Z,6.55
2023-04-14T03:26:18.505Z,6.40
2023-04-14T03:28:53.462Z,6.65
2023-04-14T03:31:31.967Z,6.65
2023-04-14T03:34:06.940Z,7.38
2023-04-14T03:36:43.853Z,7.00
2023-04-14T03:39:17.705Z,7.72
2023-04-14T03:41:51.926Z,7.00
2023-04-14T03:44:32.921Z,7.25
2023-04-14T03:47:08.182Z,6.80
2023-04-14T03:49:43.328Z,7.18
2023-04-14T03:52:17.438Z,7.75
2023-04-14T03:54:52.027Z,7.15
2023-04-14T03:57:26.270Z,6.88
2023-04-14T04:00:03.193Z,6.55
2023-04-14T04:02:45.866Z,7.20
2023-04-14T04:05:18.454Z,7.60
2023-04-14T04:07:51.022Z,7.60
2023-04-14T04:10:24.391Z,7.60
2023-04-14T04:12:58.820Z,7.47
2023-04-14T04:15:32.339Z,8.20
2023-04-14T04:18:06.874Z,7.25
2023-04-14T04:20:40.556Z,6.90
2023-04-14T04:23:13.749Z,7.32
2023-04-14T04:25:47.327Z,7.05
2023-04-14T04:28:30.116Z,7.05
2023-04-14T04:31:04.981Z,6.78
2023-04-14T04:33:37.794Z,7.43
2023-04-14T04:36:11.267Z,7.70
2023-04-14T04:38:49.421Z,7.50
2023-04-14T04:41:25.524Z,6.90
2023-04-14T04:43:59.349Z,7.10
2023-04-14T04:46:54.801Z,7.22
2023-04-14T04:53:37.750Z,7.18
2023-04-14T04:56:09.813Z,7.13
2023-04-14T04:58:41.786Z,7.50
2023-04-14T05:01:14.975Z,7.80
2023-04-14T05:03:46.909Z,7.47
2023-04-14T05:06:18.798Z,7.45
2023-04-14T05:08:54.812Z,8.07
2023-04-14T05:11:27.171Z,7.25
2023-04-14T05:13:59.235Z,6.65
2023-04-14T05:16:31.525Z,6.53
2023-04-14T05:19:04.039Z,7.15
2023-04-14T05:21:36.409Z,6.75
2023-04-14T05:24:11.421Z,6.80
2023-04-14T05:29:18.435Z,7.82
2023-04-14T05:31:50.486Z,9.15
2023-04-14T05:34:22.398Z,9.35
2023-04-14T05:36:54.302Z,9.63
2023-04-14T05:39:26.318Z,9.25
2023-04-14T05:41:59.738Z,8.43
2023-04-14T05:44:31.737Z,9.95
2023-04-14T05:47:03.834Z,8.07
2023-04-14T05:49:36.103Z,6.78
2023-04-14T05:52:07.937Z,7.38
2023-04-14T05:54:41.317Z,6.80
2023-04-14T05:57:15.046Z,7.75
2023-04-14T05:59:47.042Z,7.63
2023-04-14T06:02:18.991Z,7.68
2023-04-14T06:04:50.978Z,7.25
2023-04-14T06:07:23.100Z,7.10
2023-04-14T06:09:55.050Z,7.03
2023-04-14T06:12:27.128Z,7.20
2023-04-14T06:14:59.059Z,8.23
2023-04-14T06:17:32.054Z,7.93
2023-04-14T06:20:04.342Z,7.03
2023-04-14T06:22:36.217Z,6.38
2023-04-14T06:25:08.409Z,5.43
2023-04-14T06:27:40.425Z,5.78
2023-04-14T06:30:13.580Z,5.88
2023-04-14T06:32:45.540Z,7.63
2023-04-14T06:35:29.536Z,5.40
2023-04-14T06:38:04.136Z,5.47
2023-04-14T06:40:36.068Z,5.50
2023-04-14T06:43:11.086Z,5.75
2023-04-14T06:45:43.227Z,6.30
2023-04-14T06:48:15.716Z,6.47
2023-04-14T06:50:57.067Z,7.32
2023-04-14T06:53:29.094Z,6.60
2023-04-14T06:56:01.596Z,7.38
2023-04-14T06:58:33.922Z,7.65
2023-04-14T07:01:06.600Z,6.50
2023-04-14T07:03:38.682Z,7.18
2023-04-14T07:06:12.006Z,7.35
2023-04-14T07:08:44.014Z,7.13
2023-04-14T07:11:16.050Z,6.95
2023-04-14T07:13:48.029Z,6.80
2023-04-14T07:16:19.972Z,7.18
2023-04-14T07:18:51.969Z,6.72
2023-04-14T07:21:24.033Z,6.70
2023-04-14T07:23:56.108Z,5.90
2023-04-14T07:26:28.060Z,6.15
2023-04-14T07:29:00.168Z,6.05
2023-04-14T07:31:34.235Z,5.95
2023-04-14T07:34:06.618Z,5.60
2023-04-14T07:36:38.599Z,5.25
2023-04-14T07:39:10.565Z,5.85
2023-04-14T07:41:42.562Z,5.35
2023-04-14T07:44:14.503Z,4.60
2023-04-14T07:46:46.445Z,5.20
2023-04-14T07:49:18.456Z,5.22
2023-04-14T07:51:51.018Z,4.90
2023-04-14T07:54:24.485Z,5.25
2023-04-14T07:56:57.797Z,4.82
2023-04-14T07:59:31.435Z,5.30
2023-04-14T08:02:03.415Z,5.55
2023-04-14T08:04:36.612Z,6.38
2023-04-14T08:07:08.699Z,5.63
2023-04-14T08:09:40.586Z,5.55
2023-04-14T08:12:12.518Z,5.78
2023-04-14T08:14:44.438Z,6.28
2023-04-14T08:17:16.821Z,6.07
2023-04-14T08:19:48.763Z,5.65
2023-04-14T08:22:20.700Z,5.70
2023-04-14T08:24:52.588Z,6.20
2023-04-14T08:27:24.666Z,6.47
2023-04-14T08:29:57.069Z,6.20
2023-04-14T08:32:29.111Z,6.32
2023-04-14T08:35:38.784Z,6.15
2023-04-14T08:37:53.807Z,6.47
2023-04-14T08:40:41.250Z,6.07
2023-04-14T08:43:15.369Z,5.90
2023-04-14T08:45:50.118Z,5.50
2023-04-14T08:48:25.548Z,5.85
2023-04-14T08:51:07.473Z,5.20
2023-04-14T08:53:45.963Z,5.53
2023-04-14T08:56:20.839Z,5.55
2023-04-14T08:58:53.611Z,3.90
2023-04-14T09:01:26.025Z,4.55
2023-04-14T09:03:58.890Z,4.40
2023-04-14T09:06:31.922Z,3.85
2023-04-14T09:09:07.726Z,2.63
2023-04-14T09:11:41.466Z,4.40
2023-04-14T09:14:14.555Z,3.33
2023-04-14T09:16:48.836Z,2.83
2023-04-14T09:19:22.485Z,2.50
2023-04-14T09:21:55.654Z,1.75
2023-04-14T09:24:34.175Z,1.67
2023-04-14T09:27:06.922Z,2.03
2023-04-14T09:29:39.244Z,2.03
2023-04-14T09:32:12.570Z,1.95
2023-04-14T09:34:56.596Z,1.77
2023-04-14T09:37:46.480Z,1.58
2023-04-14T09:40:31.798Z,1.80
2023-04-14T09:43:03.977Z,1.73
2023-04-14T09:45:45.274Z,1.60
2023-04-14T09:48:17.486Z,1.67
2023-04-14T09:51:13.090Z,1.38
2023-04-14T09:53:48.068Z,1.77
2023-04-14T09:56:26.039Z,1.80
2023-04-14T09:59:02.743Z,1.58
2023-04-14T10:01:35.176Z,1.65
2023-04-14T10:04:23.973Z,1.60
2023-04-14T10:06:57.612Z,1.80
2023-04-14T10:09:30.996Z,2.53
2023-04-14T10:12:14.041Z,2.00
2023-04-14T10:14:46.388Z,1.70
2023-04-14T10:17:19.792Z,1.77
2023-04-14T10:19:51.768Z,1.80
2023-04-14T10:22:24.276Z,1.73
2023-04-14T10:24:58.701Z,1.70
2023-04-14T10:27:33.023Z,1.88
2023-04-14T10:30:06.496Z,1.90
2023-04-14T10:32:40.686Z,1.73
2023-04-14T10:35:14.662Z,1.75
2023-04-14T10:37:51.663Z,1.95
2023-04-14T10:40:23.757Z,1.90
2023-04-14T10:42:57.176Z,2.10
2023-04-14T10:45:29.211Z,1.90
2023-04-14T10:48:02.824Z,1.77
2023-04-14T10:50:48.938Z,2.00
2023-04-14T10:53:24.124Z,1.60
2023-04-14T10:55:57.299Z,1.30
2023-04-14T10:58:29.444Z,1.27
2023-04-14T11:01:20.519Z,1.52
2023-04-14T11:03:55.250Z,1.30
2023-04-14T11:06:49.724Z,1.20
2023-04-14T11:09:30.587Z,1.20
2023-04-14T11:12:23.566Z,1.50
2023-04-14T11:14:57.137Z,1.30
2023-04-14T11:17:30.532Z,1.60
2023-04-14T11:20:17.630Z,1.40
2023-04-14T11:22:54.201Z,1.40
2023-04-14T11:25:26.416Z,1.63
2023-04-14T11:28:03.236Z,1.40
2023-04-14T11:30:35.234Z,1.40
2023-04-14T11:33:07.394Z,1.40
2023-04-14T11:35:42.948Z,1.45
2023-04-14T11:38:15.593Z,1.40
2023-04-14T11:40:51.757Z,1.35
2023-04-14T11:43:25.092Z,1.27
2023-04-14T11:45:58.608Z,1.75
2023-04-14T11:48:32.721Z,1.20
2023-04-14T11:51:04.899Z,1.40
2023-04-14T11:53:37.319Z,1.30
2023-04-14T11:56:17.296Z,1.95
2023-04-14T11:58:53.390Z,0.90
2023-04-14T12:01:25.625Z,1.30
2023-04-14T12:03:58.671Z,1.30
2023-04-14T12:06:36.384Z,1.65
2023-04-14T12:09:11.362Z,1.50
2023-04-14T12:11:54.029Z,1.60
2023-04-14T12:14:26.759Z,1.25
2023-04-14T12:16:59.276Z,1.10
2023-04-14T12:19:35.954Z,1.02
2023-04-14T12:22:09.566Z,1.23
2023-04-14T12:24:44.143Z,1.20
2023-04-14T12:27:19.542Z,1.30
2023-04-14T12:29:52.448Z,1.10
2023-04-14T12:32:25.831Z,30.08
2023-04-14T12:34:58.657Z,1.98
2023-04-14T12:37:30.823Z,1.63
2023-04-14T12:40:06.558Z,1.30
2023-04-14T12:42:49.339Z,1.80
2023-04-14T12:45:21.383Z,1.52
2023-04-14T12:47:55.552Z,1.45
2023-04-14T12:50:31.604Z,2.38
2023-04-14T12:53:27.308Z,1.50
2023-04-14T12:56:07.102Z,1.80
2023-04-14T12:58:41.187Z,1.67
2023-04-14T13:01:14.628Z,1.40
2023-04-14T13:03:50.585Z,1.45
2023-04-14T13:06:24.190Z,1.30
2023-04-14T13:08:56.551Z,1.30
2023-04-14T13:11:28.848Z,1.27
2023-04-14T13:14:00.937Z,1.00
2023-04-14T13:16:32.995Z,1.17
2023-04-14T13:19:07.503Z,1.05
2023-04-14T13:21:40.995Z,1.33
2023-04-14T13:24:15.731Z,1.88
2023-04-14T13:26:47.738Z,2.20
2023-04-14T13:29:19.926Z,1.83
2023-04-14T13:31:52.015Z,1.60
2023-04-14T13:34:30.151Z,1.90
2023-04-14T13:37:02.009Z,2.00
2023-04-14T13:39:33.962Z,2.05
2023-04-14T13:42:07.951Z,1.60
2023-04-14T13:44:39.957Z,1.55
2023-04-14T13:47:12.347Z,1.50
2023-04-14T13:49:44.314Z,1.70
2023-04-14T13:52:17.146Z,1.70
2023-04-14T13:54:49.058Z,1.88
2023-04-14T13:57:22.018Z,1.88
2023-04-14T13:59:53.973Z,2.17
2023-04-14T14:02:29.232Z,1.80
2023-04-14T14:05:03.717Z,1.90
2023-04-14T14:07:36.802Z,2.10
2023-04-14T14:10:10.648Z,2.15
2023-04-14T14:12:43.732Z,2.10
2023-04-14T14:15:15.700Z,2.30
2023-04-14T14:17:47.784Z,2.10
2023-04-14T14:20:19.821Z,2.10
2023-04-14T14:22:52.696Z,1.83
2023-04-14T14:25:25.040Z,1.70
2023-04-14T14:27:57.117Z,2.40
2023-04-14T14:30:29.497Z,2.00
2023-04-14T14:33:04.649Z,2.15
2023-04-14T14:35:36.675Z,1.90
2023-04-14T14:38:08.752Z,1.90
2023-04-14T14:40:42.649Z,1.98
2023-04-14T14:43:14.646Z,2.15
2023-04-14T14:45:46.717Z,2.00
2023-04-14T14:48:18.957Z,2.20
2023-04-14T14:50:51.539Z,2.08
2023-04-14T14:53:23.514Z,2.05
2023-04-14T14:55:55.532Z,2.05
2023-04-14T14:58:27.812Z,2.45
2023-04-14T15:01:00.055Z,2.10
2023-04-14T15:03:32.316Z,2.10
2023-04-14T15:06:04.797Z,2.08
2023-04-14T15:08:36.912Z,2.10
2023-04-14T15:11:09.331Z,1.90
2023-04-14T15:13:44.345Z,2.00
2023-04-14T15:16:17.233Z,1.90
2023-04-14T15:18:51.628Z,2.33
2023-04-14T15:21:23.657Z,2.15
2023-04-14T15:23:55.863Z,1.98
2023-04-14T15:26:27.863Z,2.00
2023-04-14T15:29:09.190Z,2.25
2023-04-14T15:31:41.244Z,1.90
2023-04-14T15:34:13.314Z,2.00
2023-04-14T15:36:45.964Z,2.42
2023-04-14T15:39:18.279Z,2.00
2023-04-14T15:41:50.536Z,2.17
2023-04-14T15:44:22.530Z,2.10
2023-04-14T15:46:54.982Z,2.33
2023-04-14T15:49:27.010Z,2.10
2023-04-14T15:51:58.897Z,2.30
2023-04-14T15:54:33.471Z,4.90
2023-04-14T15:57:05.505Z,2.80
2023-04-14T15:59:37.604Z,2.58
2023-04-14T16:02:09.555Z,2.10
2023-04-14T16:04:41.842Z,1.15
2023-04-14T16:07:13.991Z,0.60
2023-04-14T16:09:46.575Z,0.50
2023-04-14T16:12:18.456Z,0.50
2023-04-14T16:14:54.321Z,0.70
2023-04-14T16:17:26.295Z,0.40
2023-04-14T16:19:58.485Z,3.80
2023-04-14T16:22:31.278Z,0.60
2023-04-14T16:25:04.523Z,0.65
2023-04-14T16:27:36.493Z,0.60
2023-04-14T16:30:08.904Z,0.75
2023-04-14T16:32:42.026Z,0.60
2023-04-14T16:35:14.014Z,0.90
2023-04-14T16:37:45.969Z,1.63
2023-04-14T16:40:18.127Z,0.90
2023-04-14T16:42:50.056Z,1.10
2023-04-14T16:45:21.971Z,1.00
2023-04-14T16:47:53.917Z,1.17
2023-04-14T16:50:26.293Z,1.30
2023-04-14T16:52:58.209Z,1.63
2023-04-14T16:55:31.488Z,1.10
2023-04-14T16:58:03.648Z,1.02
2023-04-14T17:00:35.796Z,7.15
2023-04-14T17:03:07.957Z,1.30
2023-04-14T17:05:40.034Z,1.05
2023-04-14T17:08:12.826Z,1.05
2023-04-14T17:10:45.738Z,1.38
2023-04-14T17:13:17.948Z,1.50
2023-04-14T17:15:58.763Z,1.30
2023-04-14T17:18:38.977Z,1.55
2023-04-14T17:21:10.900Z,1.50
2023-04-14T17:23:43.332Z,1.85
2023-04-14T17:26:16.456Z,1.77
2023-04-14T17:28:48.355Z,2.00
2023-04-14T17:31:20.978Z,1.80
2023-04-14T17:33:53.511Z,2.22
2023-04-14T17:36:25.596Z,2.70
2023-04-14T17:38:57.679Z,1.20
2023-04-14T17:41:30.078Z,0.80
2023-04-14T17:44:02.350Z,1.02
2023-04-14T17:46:34.591Z,0.93
2023-04-14T17:49:07.848Z,1.08
2023-04-14T17:51:39.852Z,0.90
2023-04-14T17:54:11.814Z,3.67
2023-04-14T17:56:44.058Z,1.23
2023-04-14T17:59:16.988Z,1.40
2023-04-14T18:01:49.238Z,1.40
2023-04-14T18:04:21.687Z,1.50
2023-04-14T18:06:53.794Z,1.63
2023-04-14T18:09:25.817Z,1.52
2023-04-14T18:11:57.880Z,1.42
2023-04-14T18:14:33.584Z,1.30
2023-04-14T18:17:06.444Z,1.30
2023-04-14T18:19:39.241Z,1.33
2023-04-14T18:22:11.401Z,1.20
2023-04-14T18:29:54.747Z,15.68
2023-04-14T18:32:27.629Z,1.80
2023-04-14T18:35:00.307Z,4.25
2023-04-14T18:37:32.588Z,2.20
2023-04-14T18:40:05.697Z,1.20
2023-04-14T18:42:37.805Z,1.20
2023-04-14T18:45:10.592Z,1.08
2023-04-14T18:47:43.616Z,1.02
2023-04-14T18:50:15.805Z,0.95
2023-04-14T18:52:47.782Z,0.65
2023-04-14T18:55:19.964Z,0.73
2023-04-14T18:57:52.400Z,0.70
2023-04-14T19:00:29.591Z,1.00
2023-04-14T19:03:03.156Z,0.70
2023-04-14T19:05:37.046Z,0.80
2023-04-14T19:08:09.097Z,0.80
2023-04-14T19:10:43.270Z,0.82
2023-04-14T19:13:16.054Z,0.70
2023-04-14T19:15:52.692Z,0.80
2023-04-14T19:18:25.784Z,1.17
2023-04-14T19:21:00.514Z,21.20
2023-04-14T19:23:32.464Z,1.85
2023-04-14T19:26:07.600Z,1.40
2023-04-14T19:29:02.091Z,3.00
2023-04-14T19:31:44.977Z,2.63
2023-04-14T19:34:34.951Z,2.30
2023-04-14T19:37:07.084Z,1.73
2023-04-14T19:39:39.649Z,2.10
2023-04-14T19:42:11.643Z,1.83
2023-04-14T19:44:44.786Z,1.80
2023-04-14T19:47:18.178Z,2.00
2023-04-14T19:49:50.574Z,3.10
2023-04-14T19:52:22.683Z,3.30
2023-04-14T19:54:55.119Z,2.72
2023-04-14T19:57:27.559Z,3.58
2023-04-14T19:59:59.584Z,3.03
2023-04-14T20:02:31.701Z,4.70
2023-04-14T20:05:05.395Z,3.55
2023-04-14T20:07:37.408Z,2.60
2023-04-14T20:10:11.915Z,2.40
2023-04-14T20:12:43.928Z,2.50
2023-04-14T20:15:16.140Z,2.85
2023-04-14T20:17:48.783Z,2.15
2023-04-14T20:20:21.377Z,2.25
2023-04-14T20:22:55.533Z,1.90
2023-04-14T20:25:27.589Z,9.85
2023-04-14T20:27:59.736Z,2.85
2023-04-14T20:30:32.254Z,2.50
2023-04-14T20:33:04.679Z,3.85
2023-04-14T20:35:40.421Z,2.60
2023-04-14T20:38:15.328Z,2.85
2023-04-14T20:40:47.465Z,2.53
2023-04-14T20:43:19.807Z,1.95
2023-04-14T20:45:53.163Z,2.58
2023-04-14T20:48:25.712Z,1.97
2023-04-14T20:50:59.589Z,2.50
2023-04-14T20:53:31.723Z,2.10
2023-04-14T20:56:04.376Z,3.05
2023-04-14T20:58:37.060Z,2.55
2023-04-14T21:01:09.389Z,2.08
2023-04-14T21:03:41.678Z,1.50
2023-04-14T21:06:13.764Z,1.80
2023-04-14T21:08:45.874Z,1.95
2023-04-14T21:11:18.886Z,1.90
2023-04-14T21:15:28.151Z,1.67
2023-04-14T21:16:43.719Z,1.90
2023-04-14T21:19:15.779Z,1.95
2023-04-14T21:21:47.982Z,2.05
2023-04-14T21:24:20.148Z,1.50
2023-04-14T21:26:52.196Z,1.90
2023-04-14T21:29:24.815Z,1.45
2023-04-14T21:31:56.917Z,1.58
2023-04-14T21:34:29.016Z,1.50
2023-04-14T21:37:01.041Z,1.60
2023-04-14T21:39:33.735Z,3.85
2023-04-14T21:42:05.752Z,1.55
2023-04-14T21:44:37.739Z,1.75
2023-04-14T21:47:09.705Z,1.58
2023-04-14T21:49:41.804Z,1.63
2023-04-14T21:52:13.800Z,1.70
2023-04-14T21:54:47.596Z,1.30
2023-04-14T21:57:42.583Z,1.40
2023-04-14T22:00:14.818Z,1.63
2023-04-14T22:02:47.198Z,1.50
2023-04-14T22:05:19.924Z,1.70
2023-04-14T22:07:51.992Z,1.80
2023-04-14T22:10:24.020Z,1.88
2023-04-14T22:12:55.994Z,1.77
2023-04-14T22:15:27.942Z,1.63
2023-04-14T22:18:00.090Z,1.63
2023-04-14T22:20:33.097Z,1.60
2023-04-14T22:23:05.216Z,1.50
2023-04-14T22:25:37.903Z,1.80
2023-04-14T22:28:09.867Z,1.70
2023-04-14T22:30:41.857Z,2.10
2023-04-14T22:33:13.956Z,1.83
2023-04-14T22:35:45.928Z,1.80
2023-04-14T22:38:17.900Z,1.90
2023-04-14T22:40:52.236Z,2.13
2023-04-14T22:43:25.531Z,1.77
2023-04-14T22:45:57.472Z,2.30
2023-04-14T22:48:29.455Z,1.98
2023-04-14T22:51:01.855Z,2.28
2023-04-14T22:53:33.849Z,1.67
2023-04-14T22:56:05.811Z,1.80
2023-04-14T22:58:40.648Z,1.83
2023-04-14T23:01:21.798Z,1.65
2023-04-14T23:03:54.968Z,2.00
2023-04-14T23:06:27.122Z,1.90
2023-04-14T23:08:59.658Z,1.90
2023-04-14T23:11:32.072Z,2.10
2023-04-14T23:14:04.976Z,2.20
2023-04-14T23:16:37.219Z,2.30
2023-04-14T23:19:09.293Z,1.90
2023-04-14T23:21:41.265Z,2.03
2023-04-14T23:24:13.609Z,2.10
2023-04-14T23:26:45.919Z,1.95
2023-04-14T23:29:18.120Z,2.10
2023-04-14T23:31:50.245Z,2.15
2023-04-14T23:34:22.194Z,2.13
2023-04-14T23:36:54.147Z,2.65
2023-04-14T23:39:26.131Z,2.40
2023-04-14T23:41:58.315Z,2.17
2023-04-14T23:44:30.383Z,1.98
2023-04-14T23:47:02.509Z,2.17
2023-04-14T23:49:34.962Z,2.08
2023-04-14T23:52:07.732Z,1.77
2023-04-14T23:54:39.685Z,1.60
2023-04-14T23:57:12.589Z,2.17
2023-04-14T23:59:44.612Z,1.85
